createdAt,value
2023-05-25T06:48:38.784Z,100576.18
2023-05-25T06:51:07.682Z,100578.94
2023-05-25T06:53:36.980Z,100581.75
2023-05-25T06:56:05.469Z,100583.98
2023-05-25T06:58:33.454Z,100583.80
2023-05-25T07:01:02.071Z,100588.35
2023-05-25T07:03:30.085Z,100584.39
2023-05-25T07:05:58.288Z,100584.11
2023-05-25T07:08:29.613Z,100578.27
2023-05-25T07:10:57.887Z,100583.24
2023-05-25T07:13:26.264Z,100587.35
2023-05-25T07:15:57.512Z,100590.08
2023-05-25T07:18:26.108Z,100584.50
2023-05-25T07:20:54.494Z,100586.98
2023-05-25T07:23:22.770Z,100588.29
2023-05-25T07:25:50.729Z,100588.58
2023-05-25T07:28:21.049Z,100589.97
2023-05-25T07:30:48.919Z,100593.52
2023-05-25T07:33:17.307Z,100589.84
2023-05-25T07:35:45.675Z,100589.10
2023-05-25T07:38:14.053Z,100592.48
2023-05-25T07:40:44.023Z,100595.13
2023-05-25T07:43:12.347Z,100597.40
2023-05-25T07:45:40.432Z,100596.05
2023-05-25T07:48:09.245Z,100600.85
2023-05-25T07:50:37.598Z,100598.83
2023-05-25T07:53:05.931Z,100596.95
2023-05-25T07:55:33.988Z,100602.45
2023-05-25T07:58:02.147Z,100600.12
2023-05-25T08:00:30.408Z,100599.67
2023-05-25T08:02:59.280Z,100598.01
2023-05-25T08:05:28.507Z,100592.81
2023-05-25T08:07:56.739Z,100594.59
2023-05-25T08:10:30.862Z,100594.73
2023-05-25T08:12:59.271Z,100599.21
2023-05-25T08:15:27.752Z,100596.54
2023-05-25T08:17:56.008Z,100594.66
2023-05-25T08:20:25.239Z,100596.96
2023-05-25T08:22:53.849Z,100597.50
2023-05-25T08:25:21.970Z,100598.59
2023-05-25T08:27:50.346Z,100597.66
2023-05-25T08:30:19.058Z,100598.61
2023-05-25T08:32:47.478Z,100597.60
2023-05-25T08:35:17.010Z,100595.29
2023-05-25T08:37:46.500Z,100593.81
2023-05-25T08:40:16.473Z,100593.53
2023-05-25T08:42:46.092Z,100589.44
2023-05-25T08:45:26.559Z,100583.52
2023-05-25T08:48:10.715Z,100585.56
2023-05-25T08:50:40.712Z,100581.50
2023-05-25T08:53:11.382Z,100583.89
2023-05-25T08:55:43.055Z,100585.64
2023-05-25T08:58:23.479Z,100584.95
2023-05-25T09:00:56.867Z,100578.30
2023-05-25T09:03:25.193Z,100577.39
2023-05-25T09:05:55.561Z,100576.89
2023-05-25T09:08:24.817Z,100581.77
2023-05-25T09:10:56.947Z,100578.30
2023-05-25T09:13:25.970Z,100575.31
2023-05-25T09:15:54.884Z,100571.67
2023-05-25T09:18:23.151Z,100572.57
2023-05-25T09:20:58.462Z,100576.47
2023-05-25T09:23:27.038Z,100574.59
2023-05-25T09:25:55.894Z,100573.95
2023-05-25T09:28:27.394Z,100573.23
2023-05-25T09:30:56.411Z,100567.23
2023-05-25T09:33:24.595Z,100566.41
2023-05-25T09:35:52.685Z,100564.89
2023-05-25T09:38:21.832Z,100561.61
2023-05-25T09:40:53.268Z,100561.04
2023-05-25T09:43:36.556Z,100556.27
2023-05-25T09:46:09.003Z,100557.89
2023-05-25T09:48:37.702Z,100550.39
2023-05-25T09:51:15.925Z,100545.95
2023-05-25T09:53:44.856Z,100536.64
2023-05-25T09:56:16.825Z,100534.04
2023-05-25T09:58:45.459Z,100533.16
2023-05-25T10:01:14.694Z,100532.07
2023-05-25T10:04:02.801Z,100530.44
2023-05-25T10:06:32.905Z,100534.65
2023-05-25T10:09:01.699Z,100534.88
2023-05-25T10:11:31.766Z,100526.80
2023-05-25T10:14:05.605Z,100529.13
2023-05-25T10:16:34.508Z,100529.36
2023-05-25T10:19:31.924Z,100529.55
2023-05-25T10:22:35.723Z,100519.42
2023-05-25T10:25:11.547Z,100512.60
2023-05-25T10:27:43.931Z,100503.62
2023-05-25T10:30:14.246Z,100498.38
2023-05-25T10:32:44.288Z,100491.69
2023-05-25T10:35:18.895Z,100489.64
2023-05-25T10:37:48.310Z,100493.33
2023-05-25T10:40:16.562Z,100492.33
2023-05-25T10:42:50.799Z,100487.42
2023-05-25T10:45:20.107Z,100481.60
2023-05-25T10:47:48.476Z,100477.63
2023-05-25T10:50:28.983Z,100476.59
2023-05-25T10:53:02.413Z,100465.73
2023-05-25T10:55:53.442Z,100465.58
2023-05-25T10:58:23.519Z,100467.13
2023-05-25T11:01:07.344Z,100469.00
2023-05-25T11:03:46.771Z,100467.75
2023-05-25T11:06:21.460Z,100469.77
2023-05-25T11:09:02.302Z,100470.68
2023-05-25T11:11:49.980Z,100483.92
2023-05-25T11:14:31.210Z,100500.27
2023-05-25T11:17:13.591Z,100499.02
2023-05-25T11:19:51.467Z,100491.49
2023-05-25T11:22:32.012Z,100493.48
2023-05-25T11:25:02.514Z,100492.91
2023-05-25T11:27:34.781Z,100490.19
2023-05-25T11:30:07.555Z,100487.95
2023-05-25T11:32:59.243Z,100483.83
2023-05-25T11:35:28.734Z,100478.83
2023-05-25T11:37:57.939Z,100476.48
2023-05-25T11:40:36.378Z,100475.71
2023-05-25T11:43:07.863Z,100471.33
2023-05-25T11:45:37.808Z,100468.02
2023-05-25T11:48:06.177Z,100470.43
2023-05-25T11:50:34.498Z,100472.38
2023-05-25T11:53:21.083Z,100474.26
2023-05-25T11:56:18.113Z,100470.94
2023-05-25T11:58:58.921Z,100466.90
2023-05-25T12:01:26.953Z,100458.70
2023-05-25T12:03:58.326Z,100454.81
2023-05-25T12:06:39.412Z,100454.98
2023-05-25T12:09:14.995Z,100452.48
2023-05-25T12:11:45.220Z,100452.98
2023-05-25T12:14:14.373Z,100455.04
2023-05-25T12:16:46.036Z,100448.59
2023-05-25T12:19:14.305Z,100445.14
2023-05-25T12:21:43.479Z,100444.55
2023-05-25T12:24:14.856Z,100441.80
2023-05-25T12:26:48.746Z,100437.81
2023-05-25T12:29:17.361Z,100438.61
2023-05-25T12:31:48.011Z,100445.05
2023-05-25T12:34:20.761Z,100449.64
2023-05-25T12:36:53.680Z,100456.06
2023-05-25T12:39:38.648Z,100458.77
2023-05-25T12:42:14.750Z,100462.30
2023-05-25T12:44:45.743Z,100466.99
2023-05-25T12:47:27.487Z,100472.34
2023-05-25T12:50:14.064Z,100471.42
2023-05-25T12:52:44.510Z,100469.98
2023-05-25T12:55:26.507Z,100469.98
2023-05-25T12:58:04.047Z,100468.84
2023-05-25T13:00:35.781Z,100466.30
2023-05-25T13:03:09.079Z,100469.45
2023-05-25T13:05:38.371Z,100466.36
2023-05-25T13:08:09.301Z,100465.77
2023-05-25T13:10:37.808Z,100457.98
2023-05-25T13:13:06.030Z,100459.77
2023-05-25T13:15:34.065Z,100458.08
2023-05-25T13:18:05.415Z,100451.71
2023-05-25T13:20:33.670Z,100445.60
2023-05-25T13:23:05.529Z,100441.66
2023-05-25T13:25:53.941Z,100437.36
2023-05-25T13:28:22.329Z,100439.13
2023-05-25T13:31:00.966Z,100435.20
2023-05-25T13:33:28.933Z,100426.03
2023-05-25T13:35:58.054Z,100419.88
2023-05-25T13:38:28.906Z,100412.15
2023-05-25T13:40:57.668Z,100406.73
2023-05-25T13:43:27.081Z,100406.85
2023-05-25T13:45:56.182Z,100403.44
2023-05-25T13:48:25.282Z,100407.35
2023-05-25T13:50:53.164Z,100401.34
2023-05-25T13:53:24.383Z,100399.63
2023-05-25T13:55:52.948Z,100398.54
2023-05-25T13:58:21.346Z,100388.88
2023-05-25T14:00:49.610Z,100386.94
2023-05-25T14:03:17.509Z,100390.27
2023-05-25T14:06:01.202Z,100384.56
2023-05-25T14:08:30.722Z,100380.25
2023-05-25T14:11:02.585Z,100381.42
2023-05-25T14:13:30.747Z,100376.70
2023-05-25T14:15:58.894Z,100379.77
2023-05-25T14:18:26.797Z,100384.70
2023-05-25T14:20:55.271Z,100385.23
2023-05-25T14:23:23.854Z,100386.02
2023-05-25T14:25:54.891Z,100390.66
2023-05-25T14:28:22.871Z,100388.61
2023-05-25T14:30:51.043Z,100391.79
2023-05-25T14:33:19.214Z,100389.33
2023-05-25T14:35:47.762Z,100389.38
2023-05-25T14:38:26.686Z,100387.55
2023-05-25T14:40:56.535Z,100392.07
2023-05-25T14:43:25.064Z,100393.46
2023-05-25T14:45:53.298Z,100395.69
2023-05-25T14:48:24.803Z,100402.98
2023-05-25T14:50:52.916Z,100405.19
2023-05-25T14:53:21.211Z,100403.25
2023-05-25T14:55:49.290Z,100400.88
2023-05-25T14:58:17.596Z,100399.73
2023-05-25T15:00:45.926Z,100394.25
2023-05-25T15:03:14.056Z,100392.27
2023-05-25T15:05:42.642Z,100407.34
2023-05-25T15:08:10.986Z,100429.98
2023-05-25T15:10:39.033Z,100436.83
2023-05-25T15:13:07.005Z,100434.15
2023-05-25T15:15:35.629Z,100432.15
2023-05-25T15:18:04.208Z,100429.52
2023-05-25T15:20:32.515Z,100422.74
2023-05-25T15:23:00.520Z,100425.47
2023-05-25T15:25:35.098Z,100430.48
2023-05-25T15:28:04.038Z,100435.39
2023-05-25T15:30:33.807Z,100442.36
2023-05-25T15:33:02.304Z,100438.01
2023-05-25T15:35:33.186Z,100437.72
2023-05-25T15:38:01.894Z,100441.27
2023-05-25T15:40:30.342Z,100442.11
2023-05-25T15:42:58.617Z,100434.26
2023-05-25T15:45:27.012Z,100434.20
2023-05-25T15:47:55.109Z,100432.91
2023-05-25T15:50:23.245Z,100436.79
2023-05-25T15:52:51.729Z,100440.30
2023-05-25T15:55:20.322Z,100444.71
2023-05-25T15:57:48.502Z,100444.50
2023-05-25T16:00:17.380Z,100440.83
2023-05-25T16:02:45.447Z,100440.72
2023-05-25T16:05:13.736Z,100439.70
2023-05-25T16:07:41.617Z,100441.02
2023-05-25T16:10:10.312Z,100440.93
2023-05-25T16:12:38.473Z,100439.34
2023-05-25T16:15:07.556Z,100435.56
2023-05-25T16:17:35.534Z,100441.95
2023-05-25T16:20:12.373Z,100440.80
2023-05-25T16:22:41.164Z,100445.45
2023-05-25T16:25:10.175Z,100445.61
2023-05-25T16:27:38.617Z,100445.81
2023-05-25T16:30:08.614Z,100445.69
2023-05-25T16:32:36.686Z,100444.64
2023-05-25T16:35:05.787Z,100448.92
2023-05-25T16:37:33.697Z,100444.66
2023-05-25T16:40:02.213Z,100442.23
2023-05-25T16:42:35.653Z,100445.81
2023-05-25T16:45:04.340Z,100449.09
2023-05-25T16:47:32.232Z,100449.58
2023-05-25T16:50:00.535Z,100442.91
2023-05-25T16:52:28.592Z,100437.33
2023-05-25T16:54:58.607Z,100436.75
2023-05-25T16:57:26.498Z,100443.06
2023-05-25T16:59:55.876Z,100450.95
2023-05-25T17:02:26.325Z,100457.29
2023-05-25T17:04:54.579Z,100458.27
2023-05-25T17:07:22.400Z,100462.81
2023-05-25T17:09:50.318Z,100458.27
2023-05-25T17:12:18.067Z,100456.36
2023-05-25T17:14:46.149Z,100458.94
2023-05-25T17:17:14.173Z,100460.70
2023-05-25T17:19:42.076Z,100466.13
2023-05-25T17:22:10.230Z,100464.65
2023-05-25T17:24:38.260Z,100463.13
2023-05-25T17:27:06.197Z,100465.13
2023-05-25T17:29:34.575Z,100464.73
2023-05-25T17:32:02.639Z,100469.94
2023-05-25T17:34:30.786Z,100468.15
2023-05-25T17:36:59.152Z,100467.61
2023-05-25T17:39:28.521Z,100471.23
2023-05-25T17:41:56.891Z,100469.83
2023-05-25T17:44:26.392Z,100476.25
2023-05-25T17:46:54.674Z,100480.52
2023-05-25T17:49:22.803Z,100479.41
2023-05-25T17:51:51.370Z,100476.20
2023-05-25T17:54:24.803Z,100474.65
2023-05-25T17:56:53.742Z,100470.35
2023-05-25T17:59:22.034Z,100469.63
2023-05-25T18:01:51.540Z,100469.39
2023-05-25T18:04:20.173Z,100471.42
2023-05-25T18:06:51.850Z,100472.69
2023-05-25T18:09:21.145Z,100473.20
2023-05-25T18:11:49.739Z,100474.22
2023-05-25T18:14:18.217Z,100475.31
2023-05-25T18:16:46.389Z,100472.20
2023-05-25T18:19:16.241Z,100477.80
2023-05-25T18:21:44.578Z,100478.42
2023-05-25T18:24:12.876Z,100481.35
2023-05-25T18:26:41.850Z,100482.31
2023-05-25T18:29:09.794Z,100481.77
2023-05-25T18:31:38.066Z,100485.28
2023-05-25T18:34:06.807Z,100488.73
2023-05-25T18:36:36.029Z,100493.45
2023-05-25T18:39:04.976Z,100502.23
2023-05-25T18:41:33.461Z,100505.19
2023-05-25T18:44:01.742Z,100505.02
2023-05-25T18:46:30.173Z,100508.06
2023-05-25T18:48:58.422Z,100514.54
2023-05-25T18:51:26.312Z,100516.45
2023-05-25T18:53:54.532Z,100522.65
2023-05-25T18:56:25.916Z,100523.94
2023-05-25T18:58:56.833Z,100525.23
2023-05-25T19:01:25.491Z,100533.27
2023-05-25T19:03:56.664Z,100533.62
2023-05-25T19:06:26.762Z,100535.57
2023-05-25T19:08:54.873Z,100534.69
2023-05-25T19:11:23.005Z,100537.69
2023-05-25T19:13:55.358Z,100540.64
2023-05-25T19:16:23.305Z,100546.41
2023-05-25T19:18:51.238Z,100545.83
2023-05-25T19:21:19.916Z,100557.09
2023-05-25T19:23:48.158Z,100565.33
2023-05-25T19:26:16.193Z,100571.61
2023-05-25T19:28:47.453Z,100575.12
2023-05-25T19:31:15.785Z,100582.77
2023-05-25T19:33:43.723Z,100584.16
2023-05-25T19:36:11.636Z,100586.35
2023-05-25T19:38:42.173Z,100595.23
2023-05-25T19:41:10.737Z,100611.48
2023-05-25T19:43:39.005Z,100611.42
2023-05-25T19:46:07.260Z,100605.35
2023-05-25T19:48:35.966Z,100608.17
2023-05-25T19:51:03.880Z,100602.94
2023-05-25T19:53:32.318Z,100602.52
2023-05-25T19:56:03.168Z,100603.17
2023-05-25T19:58:31.022Z,100605.94
2023-05-25T20:00:59.200Z,100612.42
2023-05-25T20:03:27.353Z,100609.48
2023-05-25T20:05:55.831Z,100603.70
2023-05-25T20:08:25.020Z,100602.63
2023-05-25T20:10:55.094Z,100607.77
2023-05-25T20:13:23.481Z,100608.21
2023-05-25T20:15:51.467Z,100615.44
2023-05-25T20:18:23.125Z,100618.05
2023-05-25T20:20:51.502Z,100616.81
2023-05-25T20:23:19.492Z,100615.37
2023-05-25T20:25:48.047Z,100612.73
2023-05-25T20:28:16.383Z,100614.16
2023-05-25T20:30:45.322Z,100610.79
2023-05-25T20:33:13.690Z,100608.74
2023-05-25T20:35:41.822Z,100609.20
2023-05-25T20:38:10.031Z,100606.89
2023-05-25T20:40:38.199Z,100611.57
2023-05-25T20:43:05.965Z,100607.09
2023-05-25T20:45:34.521Z,100602.29
2023-05-25T20:48:05.603Z,100593.81
2023-05-25T20:50:33.951Z,100595.70
2023-05-25T20:53:02.224Z,100597.69
2023-05-25T20:55:30.908Z,100603.31
2023-05-25T20:58:00.417Z,100598.24
2023-05-25T21:00:28.665Z,100596.10
2023-05-25T21:02:57.073Z,100591.83
2023-05-25T21:05:25.256Z,100584.15
2023-05-25T21:07:53.338Z,100572.90
2023-05-25T21:10:21.907Z,100580.89
2023-05-25T21:12:50.696Z,100577.11
2023-05-25T21:15:19.027Z,100568.00
2023-05-25T21:17:49.434Z,100567.14
2023-05-25T21:20:18.637Z,100565.20
2023-05-25T21:22:46.792Z,100563.30
2023-05-25T21:25:15.010Z,100553.36
2023-05-25T21:27:43.108Z,100551.86
2023-05-25T21:30:15.357Z,100544.97
2023-05-25T21:32:43.409Z,100548.48
2023-05-25T21:35:11.743Z,100542.71
2023-05-25T21:37:40.269Z,100541.52
2023-05-25T21:40:09.109Z,100532.10
2023-05-25T21:42:37.178Z,100530.48
2023-05-25T21:45:06.505Z,100531.16
2023-05-25T21:47:34.717Z,100533.22
2023-05-25T21:50:03.364Z,100532.63
2023-05-25T21:52:31.516Z,100531.07
2023-05-25T21:54:59.353Z,100525.64
2023-05-25T21:57:27.553Z,100523.00
2023-05-25T21:59:55.938Z,100528.98
2023-05-25T22:02:24.279Z,100529.08
2023-05-25T22:04:53.229Z,100531.69
2023-05-25T22:07:21.580Z,100532.45
2023-05-25T22:09:49.978Z,100530.19
2023-05-25T22:12:19.570Z,100530.98
2023-05-25T22:14:47.789Z,100530.90
2023-05-25T22:17:16.852Z,100533.87
2023-05-25T22:19:52.140Z,100535.27
2023-05-25T22:22:27.420Z,100527.74
2023-05-25T22:24:55.289Z,100530.45
2023-05-25T22:27:23.253Z,100527.56
2023-05-25T22:29:51.242Z,100530.83
2023-05-25T22:32:19.502Z,100523.63
2023-05-25T22:34:47.674Z,100525.97
2023-05-25T22:37:16.977Z,100522.39
2023-05-25T22:39:44.944Z,100521.04
2023-05-25T22:42:13.157Z,100523.04
2023-05-25T22:44:41.092Z,100520.35
2023-05-25T22:47:08.946Z,100519.71
2023-05-25T22:49:41.264Z,100526.69
2023-05-25T22:52:12.413Z,100528.34
2023-05-25T22:54:43.984Z,100528.44
2023-05-25T22:57:12.313Z,100524.13
2023-05-25T22:59:40.496Z,100521.77
2023-05-25T23:02:08.607Z,100526.27
2023-05-25T23:04:37.647Z,100517.41
2023-05-25T23:07:05.607Z,100519.90
2023-05-25T23:09:33.640Z,100511.48
2023-05-25T23:12:01.775Z,100513.59
2023-05-25T23:14:30.245Z,100514.48
2023-05-25T23:16:58.310Z,100514.77
2023-05-25T23:19:26.501Z,100516.77
2023-05-25T23:21:55.232Z,100517.48
2023-05-25T23:24:23.349Z,100517.81
2023-05-25T23:26:51.417Z,100524.77
2023-05-25T23:29:19.290Z,100520.88
2023-05-25T23:31:47.400Z,100521.32
2023-05-25T23:34:15.529Z,100519.42
2023-05-25T23:36:43.638Z,100518.66
2023-05-25T23:39:12.604Z,100516.34
2023-05-25T23:41:40.671Z,100514.08
2023-05-25T23:44:08.562Z,100515.64
2023-05-25T23:46:36.482Z,100515.82
2023-05-25T23:49:04.684Z,100518.22
2023-05-25T23:51:32.569Z,100524.25
2023-05-25T23:54:00.723Z,100529.79
2023-05-25T23:56:28.702Z,100534.49
2023-05-25T23:58:56.469Z,100537.70
